ADDS METAR Data INFO
IDs: Format: Raw Decoded Include TAF

Data at: 2307 UTC 21 Feb 2018

KTSP 212255Z AUTO 31012G18KT 10SM CLR 04/M12 A3007 RMK AO2
KTSP 212235Z AUTO 32011G18KT 8SM CLR 04/M12 A3006 RMK AO2
KTSP 212215Z AUTO 31012G19KT 7SM CLR 05/M12 A3006 RMK AO2
KTSP 212155Z AUTO 31011G15KT 9SM CLR 05/M12 A3007 RMK AO2
KTSP 212135Z AUTO 28008G15KT 9SM CLR 04/M12 A3007 RMK AO2
KTSP 212115Z AUTO 32011G16KT 9SM CLR 04/M12 A3007 RMK AO2
KTSP 212055Z AUTO 30010G18KT 9SM CLR 04/M12 A3008 RMK AO2
KTSP 212035Z AUTO 31011G17KT 9SM CLR 04/M12 A3008 RMK AO2
KTSP 212015Z AUTO 31009KT 8SM CLR 04/M13 A3008 RMK AO2
KTSP 211955Z AUTO 31012G18KT 9SM CLR 04/M13 A3008 RMK AO2
KTSP 211935Z AUTO 32011G14KT 10SM CLR 04/M14 A3009 RMK AO2
KTSP 211915Z AUTO 30012G18KT 10SM CLR 04/M14 A3009 RMK AO2
KTSP 211855Z AUTO 29011G14KT 10SM CLR 03/M14 A3009 RMK AO2
KTSP 211835Z AUTO 30009KT 10SM CLR 03/M15 A3009 RMK AO2
KTSP 211815Z AUTO 30009KT 260V350 10SM CLR 03/M14 A3009 RMK AO2
KTSP 211755Z AUTO 32010G15KT 10SM CLR 02/M14 A3009 RMK AO2
KTSP 211735Z AUTO 34008KT 10SM CLR 02/M13 A3009 RMK AO2
KTSP 211715Z AUTO 33011KT 10SM CLR 01/M12 A3009 RMK AO2
KTSP 211655Z AUTO 30011G16KT 10SM CLR 00/M12 A3009 RMK AO2
KTSP 211635Z AUTO 31009KT 10SM CLR 00/M12 A3009 RMK AO2
KTSP 211615Z AUTO 30005KT 10SM CLR 00/M12 A3008 RMK AO2
KTSP 211555Z AUTO 28003KT 10SM CLR M02/M12 A3007 RMK AO2
KTSP 211535Z AUTO 00000KT 10SM CLR M04/M12 A3007 RMK AO2
KTSP 211515Z AUTO 00000KT 10SM CLR M08/M13 A3007 RMK AO2
KTSP 211455Z AUTO 00000KT 9SM CLR M08/M13 A3007 RMK AO2
KTSP 211435Z AUTO 00000KT 10SM CLR M08/M14 A3007 RMK AO2
KTSP 211415Z AUTO 00000KT 10SM CLR M08/M14 A3006 RMK AO2
KTSP 211355Z AUTO 00000KT 10SM CLR M07/M14 A3006 RMK AO2
KTSP 211335Z AUTO 00000KT 10SM CLR M07/M13 A3005 RMK AO2
KTSP 211315Z AUTO 00000KT 10SM CLR M07/M13 A3004 RMK AO2
KTSP 211255Z AUTO 00000KT 10SM CLR M05/M13 A3005 RMK AO2
KTSP 210755Z AUTO 02003KT 10SM FEW070 BKN110 M08/M13 A3008 RMK AO2
KTSP 210735Z AUTO 00000KT 10SM SCT070 M08/M14 A3009 RMK AO2
KTSP 210715Z AUTO 12003KT 10SM CLR M08/M14 A3009 RMK AO2
KTSP 210655Z AUTO 06003KT 10SM CLR M08/M13 A3008 RMK AO2
KTSP 210635Z AUTO 00000KT 10SM CLR M06/M13 A3010 RMK AO2
KTSP 210615Z AUTO 00000KT 10SM SCT080 M06/M12 A3010 RMK AO2
KTSP 210555Z AUTO 00000KT 10SM SCT080 M07/M13 A3011 RMK AO2
KTSP 201515Z AUTO 13006KT 10SM CLR M09/M11 A3010 RMK AO2
KTSP 201455Z AUTO 11004KT 10SM CLR M10/M12 A3009 RMK AO2
KTSP 201435Z AUTO 11003KT 10SM CLR M11/M13 A3009 RMK AO2
KTSP 201415Z AUTO 12004KT 10SM SCT032 M11/M13 A3008 RMK AO2
KTSP 201355Z AUTO 13003KT 10SM SCT032 M12/M13 A3008 RMK AO2
KTSP 201335Z AUTO 00000KT 10SM FEW030 M11/M14 A3007 RMK AO2
KTSP 201315Z AUTO 00000KT 10SM SCT030 M10/M12 A3006 RMK AO2
KTSP 201255Z AUTO 00000KT 10SM SCT028 M10/M13 A3005 RMK AO2
KTSP 201235Z AUTO 00000KT 10SM FEW024 M10/M13 A3004 RMK AO2
KTSP 201215Z AUTO 00000KT 10SM FEW024 M08/M10 A3003 RMK AO2
KTSP 201155Z AUTO 00000KT 10SM CLR M09/M11 A3002 RMK AO2
KTSP 201135Z AUTO 02003KT 10SM CLR M08/M10 A3002 RMK AO2
KTSP 201115Z AUTO 01003KT 10SM CLR M08/M10 A3001 RMK AO2